Time;durP1;ratioP1;P1;durP2;ratioP2;P2;SDS_P1;SDS_P2;PMS_P1;PMS_P2;Temp;Humidity;BMP_temperature;BMP_pressure;BME280_temperature;BME280_humidity;BME280_pressure;Samples;Min_cycle;Max_cycle;Signal;HPM_P1;HPM_P2
2022/04/19 00:00:54;;;;;;;0.40;0.40;;;6.90;99.90;;;;;;4973059;28;20484;-84
2022/04/19 00:03:20;;;;;;;0.77;0.77;;;7.70;99.90;;;;;;4980335;28;20439;-85
2022/04/19 00:05:47;;;;;;;0.50;0.50;;;6.80;99.90;;;;;;4971263;28;20126;-84
2022/04/19 00:08:15;;;;;;;0.50;0.50;;;6.80;99.90;;;;;;4941133;29;20075;-84
2022/04/19 00:10:42;;;;;;;0.50;0.50;;;7.60;99.90;;;;;;4952900;29;20180;-85
2022/04/19 00:13:10;;;;;;;0.50;0.50;;;6.70;99.90;;;;;;5035370;28;20054;-84
2022/04/19 00:15:38;;;;;;;0.50;0.50;;;7.00;99.90;;;;;;4959695;28;20066;-84
2022/04/19 00:18:06;;;;;;;0.50;0.50;;;6.80;99.90;;;;;;4970503;28;20055;-85
2022/04/19 00:20:35;;;;;;;0.50;0.50;;;6.70;99.90;;;;;;4987773;28;20043;-83
2022/04/19 00:23:03;;;;;;;0.50;0.50;;;6.80;99.90;;;;;;4943496;28;20043;-84
2022/04/19 00:25:29;;;;;;;0.50;0.50;;;6.60;99.90;;;;;;4943175;28;20566;-85
2022/04/19 00:27:54;;;;;;;;;;;6.60;99.90;;;;;;4942581;28;20043;-84
2022/04/19 00:30:20;;;;;;;0.40;0.40;;;6.50;99.90;;;;;;4954010;28;19932;-83
2022/04/19 00:32:46;;;;;;;0.52;0.52;;;6.50;99.90;;;;;;4945171;28;20104;-84
2022/04/19 00:35:12;;;;;;;0.50;0.50;;;6.50;99.90;;;;;;4974430;28;20086;-82
2022/04/19 00:37:39;;;;;;;0.50;0.50;;;6.40;99.90;;;;;;4976910;28;20051;-84
2022/04/19 00:40:07;;;;;;;0.50;0.50;;;6.30;99.90;;;;;;4965882;28;20070;-84
2022/04/19 00:42:34;;;;;;;0.50;0.50;;;6.30;99.90;;;;;;4955380;28;20065;-85
2022/04/19 00:45:05;;;;;;;0.50;0.50;;;6.30;99.90;;;;;;4954988;28;20455;-84
2022/04/19 00:47:32;;;;;;;0.60;0.60;;;6.20;99.90;;;;;;4961225;28;20073;-83
2022/04/19 00:50:01;;;;;;;0.60;0.60;;;6.20;99.90;;;;;;4951300;28;20536;-85
2022/04/19 00:52:28;;;;;;;0.50;0.50;;;6.10;99.90;;;;;;4984644;28;20047;-84
2022/04/19 00:54:54;;;;;;;0.50;0.50;;;6.10;99.90;;;;;;4987375;28;20568;-84
2022/04/19 00:57:22;;;;;;;0.40;0.40;;;6.20;99.90;;;;;;4970602;28;20090;-84
2022/04/19 00:59:49;;;;;;;0.50;0.50;;;5.90;99.90;;;;;;4947579;28;20046;-85
2022/04/19 01:02:14;;;;;;;0.40;0.40;;;5.90;99.90;;;;;;4988896;28;20071;-84
2022/04/19 01:04:40;;;;;;;0.55;0.55;;;6.50;99.90;;;;;;4954223;28;20104;-83
2022/04/19 01:07:07;;;;;;;0.50;0.50;;;5.80;99.90;;;;;;4971030;28;20047;-83
2022/04/19 01:09:32;;;;;;;0.60;0.60;;;5.80;99.90;;;;;;4969891;28;20408;-82
2022/04/19 01:14:45;;;;;;;0.50;0.50;;;5.70;99.90;;;;;;5028677;28;20077;-82
2022/04/19 01:17:10;;;;;;;0.50;0.50;;;5.70;99.90;;;;;;4937610;28;20075;-84
2022/04/19 01:19:39;;;;;;;0.65;0.65;;;5.70;99.90;;;;;;4938225;28;20074;-84
2022/04/19 01:22:06;;;;;;;0.52;0.52;;;5.60;99.90;;;;;;4966935;28;20046;-85
2022/04/19 01:24:32;;;;;;;;;;;6.40;99.90;;;;;;4950042;28;20055;-85
2022/04/19 01:26:58;;;;;;;0.60;0.60;;;5.60;99.90;;;;;;4955126;28;20024;-86
2022/04/19 01:29:25;;;;;;;0.70;0.70;;;5.60;99.90;;;;;;4938488;28;20488;-83
2022/04/19 01:31:52;;;;;;;0.70;0.70;;;5.50;99.90;;;;;;4958863;28;20042;-82
2022/04/19 01:34:21;;;;;;;0.70;0.70;;;6.20;99.90;;;;;;4944669;29;20043;-85
2022/04/19 01:36:46;;;;;;;0.60;0.60;;;5.70;99.90;;;;;;4935328;28;20576;-83
2022/04/19 01:39:12;;;;;;;0.60;0.60;;;5.50;99.90;;;;;;4968698;28;20070;-86
2022/04/19 01:41:39;;;;;;;0.63;0.63;;;5.40;99.90;;;;;;4947484;29;20043;-85
2022/04/19 01:44:07;;;;;;;0.70;0.70;;;5.40;99.90;;;;;;4953813;28;20047;-83
2022/04/19 01:46:33;;;;;;;0.75;0.75;;;5.40;99.90;;;;;;4938188;28;20044;-84
2022/04/19 01:49:01;;;;;;;0.65;0.65;;;5.90;99.90;;;;;;4985071;28;20046;-84
2022/04/19 01:51:27;;;;;;;0.70;0.70;;;5.80;99.90;;;;;;4988865;28;20046;-83
2022/04/19 01:53:54;;;;;;;0.52;0.52;;;5.40;99.90;;;;;;4956444;28;20050;-83
2022/04/19 01:56:20;;;;;;;0.65;0.65;;;5.40;99.90;;;;;;4956491;28;20522;-83
2022/04/19 01:58:46;;;;;;;1.05;0.95;;;5.30;99.90;;;;;;4939872;28;20060;-84
2022/04/19 02:01:11;;;;;;;0.70;0.70;;;6.20;99.90;;;;;;4956542;28;20035;-83
2022/04/19 02:03:37;;;;;;;0.85;0.85;;;6.00;99.90;;;;;;4950968;28;20125;-82
2022/04/19 02:06:08;;;;;;;0.60;0.60;;;5.30;99.90;;;;;;4966825;28;20035;-83
2022/04/19 02:08:34;;;;;;;0.65;0.65;;;6.10;99.90;;;;;;4972581;28;20053;-82
2022/04/19 02:11:00;;;;;;;0.70;0.70;;;5.20;99.90;;;;;;4956799;28;20043;-82
2022/04/19 02:13:26;;;;;;;0.60;0.60;;;5.10;99.90;;;;;;4969890;28;20051;-82
2022/04/19 02:15:53;;;;;;;0.77;0.77;;;5.30;99.90;;;;;;4943665;28;20039;-83
2022/04/19 02:18:19;;;;;;;0.60;0.60;;;5.10;99.90;;;;;;4974718;28;20051;-83
2022/04/19 02:20:46;;;;;;;0.60;0.60;;;6.30;99.90;;;;;;4938774;28;20043;-83
2022/04/19 02:23:15;;;;;;;0.60;0.60;;;5.50;99.90;;;;;;4956437;28;20106;-85
2022/04/19 02:25:42;;;;;;;0.60;0.60;;;5.50;99.90;;;;;;4939333;29;20122;-83
2022/04/19 02:28:10;;;;;;;0.60;0.60;;;5.10;99.90;;;;;;4960640;28;20043;-84
2022/04/19 02:30:36;;;;;;;0.68;0.68;;;4.90;99.90;;;;;;4965259;28;20054;-84
2022/04/19 02:33:03;;;;;;;0.70;0.70;;;5.00;99.90;;;;;;4949383;28;20090;-84
2022/04/19 02:35:28;;;;;;;;;;;4.80;99.90;;;;;;4949285;29;20044;-83
2022/04/19 02:37:59;;;;;;;0.70;0.70;;;4.80;99.90;;;;;;4970890;28;19929;-84
2022/04/19 02:40:26;;;;;;;0.70;0.70;;;4.80;99.90;;;;;;4972136;28;20412;-84
2022/04/19 02:42:54;;;;;;;0.60;0.60;;;4.80;99.90;;;;;;4955402;28;20054;-84
2022/04/19 02:45:21;;;;;;;0.70;0.70;;;5.40;99.90;;;;;;4971811;28;20042;-84
2022/04/19 02:47:48;;;;;;;0.57;0.57;;;4.80;99.90;;;;;;4970945;28;20039;-83
2022/04/19 02:50:16;;;;;;;0.50;0.50;;;5.10;99.90;;;;;;4944502;28;20058;-84
2022/04/19 02:52:42;;;;;;;0.50;0.50;;;4.80;99.90;;;;;;4961329;28;20102;-85
2022/04/19 02:55:07;;;;;;;0.50;0.50;;;6.00;99.90;;;;;;4970167;28;20410;-84
2022/04/19 02:57:33;;;;;;;0.60;0.60;;;4.80;99.90;;;;;;4961243;28;20055;-83
2022/04/19 03:00:00;;;;;;;0.93;0.93;;;4.90;99.90;;;;;;4948434;28;20035;-84
2022/04/19 03:02:25;;;;;;;0.50;0.50;;;4.80;99.90;;;;;;4937868;28;20035;-84
2022/04/19 03:04:51;;;;;;;0.63;0.63;;;4.80;99.90;;;;;;4939877;28;20395;-84
2022/04/19 03:07:17;;;;;;;0.77;0.77;;;5.10;99.90;;;;;;4924905;28;20050;-86
2022/04/19 03:09:44;;;;;;;0.70;0.70;;;4.80;99.90;;;;;;4947975;28;20043;-85
2022/04/19 03:12:10;;;;;;;0.60;0.60;;;4.80;99.90;;;;;;4953254;28;20062;-83
2022/04/19 03:14:36;;;;;;;;;;;4.80;99.90;;;;;;4975709;28;20054;-84
2022/04/19 03:17:03;;;;;;;0.70;0.70;;;5.00;99.90;;;;;;4956521;28;19952;-85
2022/04/19 03:19:36;;;;;;;0.63;0.63;;;4.80;99.90;;;;;;4958463;28;20050;-84
2022/04/19 03:22:07;;;;;;;0.60;0.60;;;4.80;99.90;;;;;;4975318;28;20097;-84
2022/04/19 03:30:14;;;;;;;0.70;0.70;;;4.90;99.90;;;;;;4964028;28;20082;-87
2022/04/19 03:32:42;;;;;;;0.80;0.80;;;5.00;99.90;;;;;;4975166;28;20125;-82
2022/04/19 03:35:08;;;;;;;0.60;0.60;;;4.70;99.90;;;;;;4950714;28;20043;-85
2022/04/19 03:37:34;;;;;;;0.70;0.70;;;4.70;99.90;;;;;;4959443;28;20047;-84
2022/04/19 03:40:00;;;;;;;1.02;1.02;;;4.70;99.90;;;;;;4944082;28;20054;-84
2022/04/19 03:42:25;;;;;;;;;;;4.70;99.90;;;;;;4955703;28;20039;-84
2022/04/19 03:44:51;;;;;;;0.70;0.70;;;5.90;99.90;;;;;;4972875;28;19922;-84
2022/04/19 03:47:17;;;;;;;0.80;0.80;;;4.70;99.90;;;;;;4954656;28;20126;-83
2022/04/19 03:49:43;;;;;;;0.70;0.70;;;4.70;99.90;;;;;;4954041;28;20058;-84
2022/04/19 03:52:09;;;;;;;0.80;0.80;;;4.60;99.90;;;;;;4950986;28;20049;-84
2022/04/19 03:54:35;;;;;;;0.70;0.70;;;5.00;99.90;;;;;;4953427;28;20043;-83
2022/04/19 03:57:05;;;;;;;;;;;4.60;99.90;;;;;;4972249;28;20051;-84
2022/04/19 03:59:31;;;;;;;0.65;0.65;;;4.60;99.90;;;;;;4953416;28;19922;-83
2022/04/19 04:01:58;;;;;;;;;;;6.20;99.90;;;;;;4956202;28;20088;-84
2022/04/19 04:04:26;;;;;;;0.60;0.60;;;5.40;99.90;;;;;;4935893;28;20012;-83
2022/04/19 04:06:52;;;;;;;0.70;0.70;;;5.30;99.90;;;;;;5038820;28;20047;-84
2022/04/19 04:09:19;;;;;;;1.40;1.40;;;5.30;99.90;;;;;;4940252;28;20050;-86
2022/04/19 04:11:45;;;;;;;0.70;0.70;;;4.50;99.90;;;;;;4923502;28;20043;-84
2022/04/19 04:14:10;;;;;;;0.90;0.90;;;4.40;99.90;;;;;;4954790;28;20050;-84
2022/04/19 04:16:37;;;;;;;;;;;4.40;99.90;;;;;;4955662;28;20446;-84
2022/04/19 04:19:02;;;;;;;0.60;0.60;;;4.40;99.90;;;;;;4979785;28;19918;-82
2022/04/19 04:21:30;;;;;;;0.60;0.60;;;4.40;99.90;;;;;;4966647;28;20063;-83
2022/04/19 04:23:55;;;;;;;0.63;0.63;;;4.30;99.90;;;;;;4932736;28;20043;-84
2022/04/19 04:26:21;;;;;;;0.80;0.80;;;4.20;99.90;;;;;;4943446;28;20460;-85
2022/04/19 04:28:47;;;;;;;1.70;1.60;;;4.20;99.90;;;;;;4954939;28;20050;-84
2022/04/19 04:31:13;;;;;;;0.85;0.85;;;4.20;99.90;;;;;;4964709;28;20121;-84
2022/04/19 04:33:39;;;;;;;0.60;0.60;;;4.20;99.90;;;;;;4934403;28;20060;-83
2022/04/19 04:36:05;;;;;;;0.60;0.60;;;4.20;99.90;;;;;;4962982;28;20046;-83
2022/04/19 04:38:31;;;;;;;0.60;0.60;;;4.20;99.90;;;;;;5017049;28;20069;-84
2022/04/19 04:40:58;;;;;;;0.60;0.60;;;4.30;99.90;;;;;;4948729;28;20035;-83
2022/04/19 04:43:23;;;;;;;0.70;0.70;;;4.30;99.90;;;;;;4968936;28;20468;-84
2022/04/19 04:49:35;;;;;;;0.70;0.70;;;4.40;99.90;;;;;;4955135;28;20172;-84
2022/04/19 04:51:18;;;;;;;0.70;0.70;;;5.40;99.90;;;;;;4953643;28;20434;-85
2022/04/19 04:53:44;;;;;;;0.80;0.80;;;4.40;99.90;;;;;;4951995;28;20046;-83
2022/04/19 04:56:10;;;;;;;0.70;0.70;;;4.40;99.90;;;;;;4936821;28;20062;-85
2022/04/19 04:58:41;;;;;;;0.68;0.68;;;3.40;99.90;;;;;;4937296;28;20047;-85
2022/04/19 05:01:07;;;;;;;0.70;0.70;;;4.60;99.90;;;;;;4968631;28;20373;-84
2022/04/19 05:03:36;;;;;;;0.57;0.57;;;4.60;99.90;;;;;;4966680;28;20444;-84
2022/04/19 05:06:02;;;;;;;0.70;0.70;;;5.80;99.90;;;;;;4946919;28;20038;-83
2022/04/19 05:08:28;;;;;;;0.68;0.68;;;4.70;99.90;;;;;;4929616;28;20123;-84
2022/04/19 05:10:55;;;;;;;0.70;0.70;;;4.80;99.90;;;;;;4951672;28;20081;-84
2022/04/19 05:13:20;;;;;;;0.60;0.60;;;4.90;99.90;;;;;;4976479;28;20452;-85
2022/04/19 05:15:46;;;;;;;0.60;0.60;;;5.00;99.90;;;;;;4973491;28;20086;-84
2022/04/19 05:18:14;;;;;;;0.70;0.70;;;5.00;99.90;;;;;;4934494;28;20062;-84
2022/04/19 05:20:42;;;;;;;0.70;0.70;;;5.20;99.90;;;;;;4955426;28;20028;-84
2022/04/19 05:23:09;;;;;;;0.65;0.65;;;5.30;99.90;;;;;;4981129;28;20046;-85
2022/04/19 05:25:35;;;;;;;0.70;0.70;;;5.50;99.90;;;;;;4941700;28;20073;-82
2022/04/19 05:28:06;;;;;;;0.77;0.77;;;5.50;99.90;;;;;;4940492;28;20108;-83
2022/04/19 05:30:32;;;;;;;0.70;0.70;;;5.60;99.90;;;;;;4951130;28;20039;-83
2022/04/19 05:32:58;;;;;;;0.70;0.70;;;5.70;99.90;;;;;;4943445;28;20463;-84
2022/04/19 05:35:24;;;;;;;0.60;0.60;;;5.90;99.90;;;;;;4948616;28;20047;-83
2022/04/19 05:37:49;;;;;;;0.65;0.65;;;5.90;99.90;;;;;;4926500;28;20077;-85
2022/04/19 05:40:16;;;;;;;0.60;0.60;;;6.00;99.90;;;;;;4941931;28;20041;-85
2022/04/19 05:42:42;;;;;;;0.60;0.60;;;6.10;99.90;;;;;;4959730;28;20503;-85
2022/04/19 05:45:14;;;;;;;0.50;0.50;;;7.10;99.90;;;;;;4947792;28;20523;-83
2022/04/19 05:47:40;;;;;;;0.40;0.40;;;6.30;99.90;;;;;;4971051;28;20039;-84
2022/04/19 05:50:06;;;;;;;0.57;0.57;;;6.60;99.90;;;;;;4959712;28;20043;-84
2022/04/19 05:52:32;;;;;;;0.70;0.70;;;6.50;99.90;;;;;;4959892;28;20051;-84
2022/04/19 05:54:58;;;;;;;0.50;0.50;;;6.60;99.90;;;;;;4949660;28;20042;-83
2022/04/19 05:57:23;;;;;;;0.50;0.50;;;6.80;99.90;;;;;;4957228;28;20084;-83
2022/04/19 05:59:52;;;;;;;0.80;0.80;;;7.00;99.90;;;;;;4963624;28;20395;-83
2022/04/19 06:05:02;;;;;;;0.50;0.50;;;7.00;99.90;;;;;;4948809;28;20042;-82
2022/04/19 06:07:32;;;;;;;0.38;0.38;;;7.10;99.90;;;;;;4940008;28;20061;-82
2022/04/19 06:09:59;;;;;;;0.30;0.30;;;7.20;99.90;;;;;;4951507;29;20043;-85
2022/04/19 06:12:25;;;;;;;0.60;0.60;;;7.30;99.90;;;;;;4943233;29;20130;-83
2022/04/19 06:14:50;;;;;;;;;;;7.40;99.90;;;;;;4940890;29;20510;-83
2022/04/19 06:17:18;;;;;;;1.33;1.30;;;7.50;99.90;;;;;;4971647;28;20009;-83
2022/04/19 06:19:44;;;;;;;0.50;0.50;;;7.60;99.90;;;;;;4937813;28;20061;-83
2022/04/19 06:22:11;;;;;;;0.47;0.47;;;7.70;99.90;;;;;;4923865;28;20044;-85
2022/04/19 06:24:40;;;;;;;0.52;0.52;;;7.80;99.90;;;;;;4962791;28;20049;-79
2022/04/19 06:27:08;;;;;;;0.40;0.40;;;8.00;99.90;;;;;;4935100;28;20043;-80
2022/04/19 06:29:34;;;;;;;0.68;0.68;;;7.90;99.90;;;;;;4945768;28;20134;-79
2022/04/19 06:32:00;;;;;;;0.40;0.40;;;8.00;99.90;;;;;;4929879;28;20126;-80
2022/04/19 06:34:26;;;;;;;0.47;0.47;;;8.30;99.90;;;;;;4934487;29;20550;-81
2022/04/19 06:36:52;;;;;;;0.60;0.60;;;8.40;99.90;;;;;;4942457;28;20051;-79
2022/04/19 06:39:17;;;;;;;0.47;0.47;;;8.50;99.90;;;;;;4970564;28;20062;-82
2022/04/19 06:41:43;;;;;;;0.40;0.40;;;8.60;99.90;;;;;;4969491;28;20157;-81
2022/04/19 06:44:09;;;;;;;0.47;0.47;;;8.80;99.90;;;;;;4903447;28;20737;-81
2022/04/19 06:46:36;;;;;;;0.50;0.50;;;8.90;99.90;;;;;;4953580;28;20043;-78
2022/04/19 06:49:08;;;;;;;0.40;0.40;;;9.10;99.90;;;;;;4919968;28;20046;-78
2022/04/19 06:51:33;;;;;;;0.40;0.40;;;9.30;99.90;;;;;;4939881;29;20106;-78
2022/04/19 06:54:12;;;;;;;0.47;0.47;;;9.30;99.90;;;;;;4947394;28;20549;-79
2022/04/19 06:56:59;;;;;;;0.40;0.40;;;9.50;99.90;;;;;;4957172;28;20043;-82
2022/04/19 06:59:28;;;;;;;0.30;0.30;;;10.20;99.90;;;;;;4934965;28;20143;-84
2022/04/19 07:02:17;;;;;;;0.40;0.40;;;9.80;99.90;;;;;;4961637;28;20120;-84
2022/04/19 07:04:48;;;;;;;0.35;0.35;;;9.90;99.90;;;;;;4950742;28;20055;-84
2022/04/19 07:07:27;;;;;;;0.40;0.40;;;10.00;99.90;;;;;;4941456;28;20036;-82
2022/04/19 07:10:33;;;;;;;0.30;0.30;;;10.10;99.90;;;;;;4951461;28;20461;-86
2022/04/19 07:13:15;;;;;;;0.40;0.40;;;11.00;99.90;;;;;;4977948;28;20055;-82
2022/04/19 07:16:15;;;;;;;0.60;0.60;;;10.40;99.90;;;;;;4962082;28;20073;-84
2022/04/19 07:18:41;;;;;;;0.35;0.35;;;10.40;99.90;;;;;;4961198;28;20059;-84
2022/04/19 07:26:45;;;;;;;0.30;0.30;;;10.80;99.90;;;;;;4954053;28;20061;-81
2022/04/19 07:29:12;;;;;;;;;;;10.90;99.90;;;;;;4935542;28;20137;-82
2022/04/19 07:31:41;;;;;;;0.22;0.22;;;11.00;99.90;;;;;;4956714;28;19921;-80
2022/04/19 07:34:07;;;;;;;0.40;0.40;;;11.10;99.90;;;;;;4934909;28;20039;-84
2022/04/19 07:36:42;;;;;;;0.45;0.45;;;11.20;99.90;;;;;;4970054;28;20038;-82
2022/04/19 07:39:12;;;;;;;0.32;0.32;;;11.30;99.90;;;;;;4958297;28;20051;-81
2022/04/19 07:41:45;;;;;;;0.40;0.40;;;11.40;99.90;;;;;;4949490;28;20042;-80
2022/04/19 07:44:20;;;;;;;0.40;0.40;;;11.50;99.90;;;;;;4959184;28;20467;-85
2022/04/19 07:46:54;;;;;;;0.20;0.20;;;;;;;;;;4946632;28;20070;-83
2022/04/19 07:49:38;;;;;;;0.52;0.52;;;11.50;99.90;;;;;;4970440;28;20438;-81
2022/04/19 07:52:04;;;;;;;0.30;0.30;;;11.60;99.90;;;;;;4917611;28;20061;-78
2022/04/19 07:54:30;;;;;;;0.30;0.30;;;11.70;99.90;;;;;;4945886;28;20039;-80
2022/04/19 07:56:56;;;;;;;0.30;0.30;;;11.70;99.90;;;;;;4995841;28;20449;-83
2022/04/19 07:59:33;;;;;;;0.25;0.25;;;11.80;99.90;;;;;;4965488;28;20403;-79
2022/04/19 08:02:09;;;;;;;0.38;0.38;;;11.80;99.90;;;;;;4955955;28;20237;-80
2022/04/19 08:04:34;;;;;;;;;;;11.90;99.90;;;;;;4937856;28;20675;-85
2022/04/19 08:07:00;;;;;;;0.40;0.40;;;12.00;99.90;;;;;;4941807;28;19929;-85
2022/04/19 08:09:26;;;;;;;0.30;0.30;;;12.10;99.90;;;;;;4965224;28;20043;-83
2022/04/19 08:11:53;;;;;;;0.38;0.38;;;12.20;99.90;;;;;;4940302;28;20388;-82
2022/04/19 08:14:28;;;;;;;0.30;0.30;;;12.20;99.90;;;;;;4938929;28;20107;-85
2022/04/19 08:17:08;;;;;;;0.30;0.30;;;12.20;99.90;;;;;;4969660;28;20047;-83
2022/04/19 08:19:35;;;;;;;0.30;0.30;;;12.40;99.90;;;;;;4979215;28;20100;-83
2022/04/19 08:22:03;;;;;;;4.28;0.88;;;12.40;99.90;;;;;;4957568;28;20153;-83
2022/04/19 08:24:28;;;;;;;0.45;0.45;;;12.50;99.90;;;;;;4957908;28;20046;-82
2022/04/19 08:26:54;;;;;;;0.30;0.30;;;12.60;99.90;;;;;;4938303;28;20065;-81
2022/04/19 08:29:20;;;;;;;0.30;0.30;;;12.70;99.90;;;;;;4954478;28;20179;-83
2022/04/19 08:31:47;;;;;;;0.50;0.50;;;12.80;99.90;;;;;;4953593;28;20124;-82
2022/04/19 08:34:19;;;;;;;0.40;0.40;;;12.90;99.90;;;;;;4944094;28;20054;-86
2022/04/19 08:36:46;;;;;;;0.30;0.30;;;13.00;99.90;;;;;;4946859;28;20070;-84
2022/04/19 08:39:12;;;;;;;0.30;0.30;;;13.00;99.90;;;;;;4935240;28;20050;-83
2022/04/19 08:41:45;;;;;;;0.40;0.40;;;13.10;99.90;;;;;;4943524;28;20042;-83
2022/04/19 08:44:12;;;;;;;0.35;0.35;;;13.20;99.90;;;;;;4917537;29;20043;-81
2022/04/19 08:46:39;;;;;;;0.32;0.32;;;13.20;99.90;;;;;;4944404;28;20053;-85
2022/04/19 08:49:06;;;;;;;0.20;0.20;;;13.40;99.90;;;;;;4957741;28;20037;-82
2022/04/19 08:51:37;;;;;;;0.28;0.28;;;13.50;99.90;;;;;;4979031;28;20047;-84
2022/04/19 08:59:54;;;;;;;0.40;0.40;;;13.60;98.00;;;;;;4965846;28;20050;-80
2022/04/19 09:02:25;;;;;;;0.30;0.30;;;13.60;98.60;;;;;;4969070;28;20380;-86
2022/04/19 09:04:52;;;;;;;0.30;0.30;;;13.70;98.30;;;;;;4946627;28;20483;-80
2022/04/19 09:07:20;;;;;;;0.40;0.40;;;12.70;98.20;;;;;;4992704;28;20177;-77
2022/04/19 09:10:00;;;;;;;0.47;0.47;;;13.90;98.00;;;;;;4958971;28;20091;-76
2022/04/19 09:12:26;;;;;;;0.30;0.30;;;13.90;97.50;;;;;;4939799;28;20047;-78
2022/04/19 09:15:00;;;;;;;0.50;0.50;;;14.00;97.30;;;;;;4959330;28;20735;-77
2022/04/19 09:17:30;;;;;;;0.30;0.30;;;14.00;97.70;;;;;;4940867;28;20043;-81
2022/04/19 09:20:19;;;;;;;0.38;0.38;;;14.10;96.80;;;;;;4946631;28;21085;-81
2022/04/19 09:22:58;;;;;;;0.30;0.30;;;14.20;97.40;;;;;;4949438;28;20047;-79
2022/04/19 09:25:25;;;;;;;0.22;0.22;;;14.20;97.90;;;;;;4968191;28;20533;-84
2022/04/19 09:27:56;;;;;;;0.30;0.30;;;14.30;97.40;;;;;;4946712;28;20062;-82
2022/04/19 09:30:34;;;;;;;0.55;0.55;;;14.30;96.10;;;;;;4931650;28;20391;-80
2022/04/19 09:33:09;;;;;;;0.40;0.40;;;14.40;96.30;;;;;;4947906;28;20058;-78
2022/04/19 09:35:37;;;;;;;0.47;0.32;;;14.40;96.70;;;;;;4986697;28;20058;-81
2022/04/19 09:38:05;;;;;;;0.32;0.32;;;14.50;97.10;;;;;;4978076;28;20491;-79
2022/04/19 09:40:38;;;;;;;0.40;0.40;;;14.60;96.20;;;;;;4962182;28;20039;-80
2022/04/19 09:43:24;;;;;;;0.40;0.40;;;14.70;97.20;;;;;;5020620;28;20040;-80
2022/04/19 09:45:56;;;;;;;0.30;0.30;;;14.70;96.80;;;;;;4953202;28;20038;-82
2022/04/19 09:48:24;;;;;;;0.40;0.40;;;14.80;96.80;;;;;;4950697;28;20047;-78
2022/04/19 09:51:05;;;;;;;0.43;0.43;;;14.80;96.70;;;;;;4952839;28;20074;-83
2022/04/19 09:53:47;;;;;;;0.25;0.25;;;14.90;95.70;;;;;;4938814;28;20066;-84
2022/04/19 09:56:15;;;;;;;0.28;0.28;;;15.00;96.00;;;;;;4945446;28;20092;-82
2022/04/19 09:58:45;;;;;;;0.38;0.38;;;15.10;96.60;;;;;;4952284;28;20039;-83
2022/04/19 10:09:35;;;;;;;0.25;0.25;;;15.40;95.20;;;;;;5021084;28;20050;-81
2022/04/19 10:12:02;;;;;;;0.38;0.38;;;15.40;94.00;;;;;;4953230;28;20126;-86
2022/04/19 10:14:32;;;;;;;0.20;0.20;;;15.50;94.90;;;;;;4967789;28;20038;-79
2022/04/19 10:16:59;;;;;;;0.30;0.30;;;15.50;95.10;;;;;;4946790;28;20063;-80
2022/04/19 10:19:27;;;;;;;0.20;0.20;;;15.60;95.50;;;;;;4968192;28;20049;-80
2022/04/19 10:21:54;;;;;;;0.30;0.30;;;15.70;94.80;;;;;;4966730;28;20527;-77
2022/04/19 10:24:23;;;;;;;0.22;0.22;;;15.70;95.20;;;;;;4971582;28;20400;-82
2022/04/19 10:26:51;;;;;;;0.22;0.22;;;15.80;95.40;;;;;;4950497;28;20503;-79
2022/04/19 10:29:32;;;;;;;0.35;0.35;;;15.80;95.00;;;;;;4951763;28;20042;-80
2022/04/19 10:32:01;;;;;;;0.30;0.30;;;15.90;93.10;;;;;;4951284;28;20089;-79
2022/04/19 10:34:31;;;;;;;0.40;0.40;;;15.80;94.00;;;;;;4932401;28;20087;-79
2022/04/19 10:37:15;;;;;;;0.30;0.30;;;15.90;93.20;;;;;;4985807;28;20047;-80
2022/04/19 10:39:59;;;;;;;0.50;0.50;;;15.80;92.10;;;;;;4962771;28;20364;-77
2022/04/19 10:42:30;;;;;;;0.32;0.32;;;15.90;91.80;;;;;;4964422;28;20070;-81
2022/04/19 10:44:56;;;;;;;0.40;0.40;;;16.00;93.30;;;;;;4948026;28;20123;-79
2022/04/19 10:47:23;;;;;;;0.40;0.40;;;16.10;93.30;;;;;;4951553;28;20050;-81
2022/04/19 10:50:06;;;;;;;0.17;0.17;;;16.20;92.50;;;;;;4965903;28;20058;-80
2022/04/19 10:52:40;;;;;;;0.40;0.40;;;16.30;93.80;;;;;;4950851;28;20466;-80
2022/04/19 10:55:07;;;;;;;0.30;0.30;;;16.40;92.60;;;;;;4945195;28;20043;-78
2022/04/19 11:00:29;;;;;;;0.40;0.40;;;16.50;91.20;;;;;;4982744;28;20433;-80
2022/04/19 11:03:03;;;;;;;0.20;0.20;;;16.40;90.00;;;;;;4968255;28;20104;-84
2022/04/19 11:05:48;;;;;;;0.20;0.20;;;16.40;90.60;;;;;;4964843;28;20612;-81
2022/04/19 11:08:37;;;;;;;0.20;0.20;;;16.30;90.90;;;;;;4955370;28;20049;-85
2022/04/19 11:11:04;;;;;;;0.22;0.22;;;16.40;90.90;;;;;;4945681;28;20513;-81
2022/04/19 11:13:40;;;;;;;0.30;0.30;;;16.40;91.30;;;;;;4948913;28;20189;-80
2022/04/19 11:16:08;;;;;;;0.40;0.40;;;16.50;90.70;;;;;;4950296;28;20053;-80
2022/04/19 11:18:38;;;;;;;0.45;0.45;;;16.50;90.70;;;;;;4954406;28;20045;-81
2022/04/19 11:21:06;;;;;;;0.20;0.20;;;16.60;89.80;;;;;;4950004;28;20043;-78
2022/04/19 11:23:46;;;;;;;0.20;0.20;;;16.70;88.80;;;;;;4963176;28;20037;-78
2022/04/19 11:26:30;;;;;;;0.55;0.35;;;16.70;90.20;;;;;;4974691;28;20050;-79
2022/04/19 11:29:18;;;;;;;0.28;0.28;;;16.70;89.10;;;;;;4979048;28;20133;-80
2022/04/19 11:31:44;;;;;;;0.30;0.30;;;16.80;87.00;;;;;;4962715;28;20054;-78
2022/04/19 11:34:13;;;;;;;;;;;16.80;89.00;;;;;;4958369;28;20043;-77
2022/04/19 11:36:39;;;;;;;0.30;0.30;;;16.90;87.70;;;;;;4950103;28;19922;-79
2022/04/19 11:39:04;;;;;;;;;;;16.90;89.40;;;;;;4954126;28;20042;-75
2022/04/19 11:47:01;;;;;;;0.30;0.30;;;17.20;90.10;;;;;;4963692;28;20047;-78
2022/04/19 11:49:34;;;;;;;;;;;17.30;88.60;;;;;;4928629;28;20039;-75
2022/04/19 11:52:02;;;;;;;0.20;0.20;;;17.40;89.40;;;;;;4966933;28;19997;-78
2022/04/19 11:54:34;;;;;;;0.22;0.22;;;17.40;87.50;;;;;;4949908;28;20046;-79
2022/04/19 11:57:06;;;;;;;0.30;0.30;;;17.50;88.20;;;;;;4944396;28;20764;-78
2022/04/19 11:59:39;;;;;;;0.30;0.30;;;17.60;88.90;;;;;;4962087;28;20526;-78
2022/04/19 12:02:19;;;;;;;0.63;0.63;;;17.70;88.20;;;;;;4959140;28;20077;-80
2022/04/19 12:05:06;;;;;;;0.50;0.50;;;17.80;85.60;;;;;;4972145;28;20141;-83
2022/04/19 12:07:32;;;;;;;1.52;0.68;;;17.80;80.80;;;;;;4965747;28;20043;-81
2022/04/19 12:09:58;;;;;;;;;;;17.70;86.90;;;;;;4950727;28;20050;-82
2022/04/19 12:12:24;;;;;;;0.30;0.30;;;17.80;86.70;;;;;;4965306;28;19922;-77
2022/04/19 12:14:54;;;;;;;0.20;0.20;;;17.80;85.20;;;;;;4934165;28;20614;-78
2022/04/19 12:17:22;;;;;;;0.35;0.35;;;17.80;83.90;;;;;;4950691;28;20097;-79
2022/04/19 12:19:48;;;;;;;0.30;0.30;;;17.80;86.80;;;;;;4945905;28;20582;-81
2022/04/19 12:22:19;;;;;;;0.30;0.30;;;18.00;87.00;;;;;;4960878;28;20042;-80
2022/04/19 12:24:47;;;;;;;0.32;0.30;;;18.20;85.50;;;;;;4974339;28;20195;-77
2022/04/19 12:27:13;;;;;;;0.40;0.40;;;18.30;84.60;;;;;;4948118;28;20390;-82
2022/04/19 12:30:14;;;;;;;0.50;0.50;;;18.40;79.00;;;;;;4977312;28;20078;-80
2022/04/19 12:33:06;;;;;;;0.35;0.35;;;18.30;83.10;;;;;;4950628;28;20439;-84
2022/04/19 12:35:34;;;;;;;0.20;0.20;;;18.40;86.10;;;;;;4960844;28;20047;-80
2022/04/19 12:38:16;;;;;;;0.30;0.30;;;18.50;82.30;;;;;;4963566;28;20367;-79
2022/04/19 12:40:50;;;;;;;0.30;0.30;;;18.50;78.90;;;;;;4974155;28;20031;-84
2022/04/19 12:43:18;;;;;;;;;;;18.40;82.10;;;;;;4950507;29;20377;-80
2022/04/19 12:45:46;;;;;;;0.30;0.30;;;18.40;80.70;;;;;;4956712;28;20027;-76
2022/04/19 12:48:21;;;;;;;0.70;0.70;;;18.50;82.30;;;;;;4958719;28;20047;-78
2022/04/19 12:50:58;;;;;;;0.40;0.40;;;18.70;84.50;;;;;;4974620;28;20085;-83
2022/04/19 12:53:24;;;;;;;0.57;0.57;;;18.90;78.50;;;;;;4950388;28;20299;-86
2022/04/19 12:55:50;;;;;;;0.40;0.40;;;19.00;78.00;;;;;;4964690;28;20130;-82
2022/04/19 12:58:16;;;;;;;;;;;18.90;78.60;;;;;;4948741;28;20492;-78
2022/04/19 13:00:41;;;;;;;0.30;0.30;;;18.90;78.50;;;;;;4987014;28;19933;-81
2022/04/19 13:03:07;;;;;;;;;;;19.10;79.20;;;;;;4960790;28;20048;-78
2022/04/19 13:13:45;;;;;;;0.30;0.30;;;19.70;76.60;;;;;;4955098;28;20497;-79
2022/04/19 13:16:11;;;;;;;0.20;0.20;;;20.10;77.00;;;;;;4954110;28;20051;-82
2022/04/19 13:18:37;;;;;;;0.20;0.20;;;20.40;75.40;;;;;;4968384;28;20074;-84
2022/04/19 13:21:05;;;;;;;0.20;0.20;;;20.80;75.60;;;;;;4944785;28;20039;-81
2022/04/19 13:23:32;;;;;;;0.20;0.20;;;20.90;74.50;;;;;;4948443;28;20090;-80
2022/04/19 13:25:58;;;;;;;0.20;0.20;;;20.90;72.00;;;;;;4933060;28;20042;-83
2022/04/19 13:28:26;;;;;;;0.20;0.20;;;21.00;76.10;;;;;;4935587;28;20054;-80
2022/04/19 13:30:55;;;;;;;0.10;0.10;;;21.10;72.70;;;;;;4938633;28;20644;-82
2022/04/19 13:33:24;;;;;;;0.10;0.10;;;21.10;72.50;;;;;;4963713;28;20411;-83
2022/04/19 13:35:50;;;;;;;0.10;0.10;;;21.30;73.10;;;;;;4959731;28;20051;-81
2022/04/19 13:38:25;;;;;;;0.10;0.10;;;21.60;71.00;;;;;;4956759;28;20156;-81
2022/04/19 13:40:52;;;;;;;0.40;0.40;;;21.90;72.40;;;;;;4947931;28;20429;-79
2022/04/19 13:43:18;;;;;;;0.10;0.10;;;22.10;70.20;;;;;;4952022;28;20464;-76
2022/04/19 13:45:46;;;;;;;0.00;0.00;;;22.00;71.20;;;;;;4950599;28;20043;-82
2022/04/19 13:48:11;;;;;;;0.03;0.03;;;22.20;70.30;;;;;;4961690;28;20469;-79
2022/04/19 13:50:37;;;;;;;0.10;0.10;;;22.60;75.40;;;;;;4949072;28;20047;-81
2022/04/19 13:53:05;;;;;;;0.10;0.10;;;22.40;69.70;;;;;;4941688;29;20204;-79
2022/04/19 13:55:31;;;;;;;0.10;0.10;;;23.20;69.50;;;;;;4930594;28;20077;-81
2022/04/19 13:58:00;;;;;;;0.00;0.00;;;23.40;73.60;;;;;;4961940;28;20046;-80